Time;durP1;ratioP1;P1;durP2;ratioP2;P2;SDS_P1;SDS_P2;PMS_P1;PMS_P2;Temp;Humidity;BMP_temperature;BMP_pressure;BME280_temperature;BME280_humidity;BME280_pressure;Samples;Min_cycle;Max_cycle;Signal;HPM_P1;HPM_P2
2024/04/16 00:00:03;;;;;;;3.10;0.43;;;;;;;5.57;100.00;99730.00;6686434;21;20072;-75
2024/04/16 00:03:01;;;;;;;2.17;0.63;;;;;;;5.59;100.00;99721.94;6691897;21;20564;-75
2024/04/16 00:05:48;;;;;;;3.38;0.47;;;;;;;5.63;100.00;99713.31;6677889;21;19995;-75
2024/04/16 00:08:38;;;;;;;4.82;0.45;;;;;;;5.68;100.00;99713.16;6679422;21;20076;-75
2024/04/16 00:11:28;;;;;;;1.90;0.60;;;;;;;5.77;100.00;99711.94;6680206;21;20002;-75
2024/04/16 00:14:20;;;;;;;0.60;0.43;;;;;;;5.70;100.00;99707.13;6681488;21;20013;-75
2024/04/16 00:17:14;;;;;;;3.65;0.38;;;;;;;5.76;100.00;99704.94;6638787;21;20003;-76
2024/04/16 00:20:06;;;;;;;2.08;0.60;;;;;;;5.62;100.00;99703.59;6679306;21;20088;-75
2024/04/16 00:22:56;;;;;;;2.25;1.10;;;;;;;5.57;100.00;99694.94;6680673;21;19995;-76
2024/04/16 00:25:44;;;;;;;;;;;;;;;5.43;100.00;99690.09;6712364;21;20035;-76
2024/04/16 00:28:42;;;;;;;1.98;0.45;;;;;;;5.32;100.00;99683.63;6680026;21;20420;-75
2024/04/16 00:31:29;;;;;;;1.50;0.38;;;;;;;5.33;100.00;99678.84;6677127;21;20006;-75
2024/04/16 00:34:19;;;;;;;1.83;0.38;;;;;;;5.26;100.00;99674.03;6677095;21;19999;-75
2024/04/16 00:37:07;;;;;;;3.40;0.57;;;;;;;5.22;100.00;99659.88;6678771;21;20002;-76
2024/04/16 00:39:57;;;;;;;4.70;1.45;;;;;;;5.14;100.00;99651.59;6675601;21;20046;-75
2024/04/16 00:42:50;;;;;;;7.03;0.80;;;;;;;4.98;100.00;99650.75;6680460;21;20009;-76
2024/04/16 00:45:43;;;;;;;2.45;0.63;;;;;;;4.84;100.00;99646.63;6674361;21;20045;-75
2024/04/16 00:48:32;;;;;;;0.95;0.52;;;;;;;5.02;100.00;99642.91;6680287;21;20072;-74
2024/04/16 00:51:22;;;;;;;1.40;0.40;;;;;;;4.89;100.00;99632.00;6643210;21;20014;-75
2024/04/16 00:54:11;;;;;;;2.22;0.45;;;;;;;4.82;100.00;99632.66;6678808;21;20054;-76
2024/04/16 00:57:01;;;;;;;1.10;0.50;;;;;;;4.81;100.00;99625.72;6676614;21;20019;-75
2024/04/16 00:59:51;;;;;;;4.00;0.63;;;;;;;4.86;100.00;99627.56;6680333;21;19999;-75
2024/04/16 01:02:44;;;;;;;1.45;0.65;;;;;;;4.96;100.00;99628.56;6680141;21;20027;-75
2024/04/16 01:05:32;;;;;;;0.85;0.20;;;;;;;4.99;100.00;99615.75;6679743;21;20555;-75
2024/04/16 01:08:22;;;;;;;7.50;0.68;;;;;;;5.07;100.00;99622.00;6679591;21;19995;-75
2024/04/16 01:11:12;;;;;;;6.25;0.85;;;;;;;5.11;100.00;99620.41;6681390;21;20049;-75
2024/04/16 01:14:00;;;;;;;2.40;0.95;;;;;;;5.18;100.00;99616.97;6680090;21;19995;-75
2024/04/16 01:16:50;;;;;;;2.17;0.60;;;;;;;5.15;100.00;99609.78;6677712;21;20076;-76
2024/04/16 01:19:40;;;;;;;4.53;0.45;;;;;;;5.16;100.00;99613.28;6676339;21;20435;-76
2024/04/16 01:22:32;;;;;;;0.95;0.45;;;;;;;5.23;100.00;99600.84;6678265;21;20003;-75
2024/04/16 01:25:22;;;;;;;2.47;0.85;;;;;;;5.32;100.00;99633.38;6681119;21;20050;-75
2024/04/16 01:28:12;;;;;;;1.80;0.70;;;;;;;5.54;100.00;99632.75;6677264;21;20069;-75
2024/04/16 01:31:02;;;;;;;5.40;1.42;;;;;;;5.58;100.00;99635.84;6647321;21;20343;-75
2024/04/16 01:33:53;;;;;;;4.03;0.63;;;;;;;5.63;100.00;99639.00;6682446;21;20505;-75
2024/04/16 01:36:41;;;;;;;1.58;0.65;;;;;;;5.69;100.00;99625.84;6712237;21;20006;-76
2024/04/16 01:39:31;;;;;;;0.55;0.28;;;;;;;5.68;100.00;99630.56;6677940;21;20006;-75
2024/04/16 01:42:24;;;;;;;4.78;0.77;;;;;;;5.65;100.00;99639.19;6677010;21;19998;-76
2024/04/16 01:45:14;;;;;;;4.75;0.60;;;;;;;5.76;100.00;99625.09;6678714;21;20041;-75
2024/04/16 01:48:02;;;;;;;1.40;0.25;;;;;;;5.77;100.00;99640.34;6687390;21;20037;-75
2024/04/16 01:50:53;;;;;;;4.53;0.30;;;;;;;5.62;100.00;99657.53;6695812;21;20122;-74
2024/04/16 01:53:42;;;;;;;8.77;1.67;;;;;;;5.35;100.00;99670.78;6727455;21;20010;-74
2024/04/16 01:56:32;;;;;;;1.55;0.20;;;;;;;4.89;100.00;99692.47;6680473;21;19999;-74
2024/04/16 01:59:23;;;;;;;0.20;0.10;;;;;;;4.54;100.00;99702.78;6698370;21;20003;-72
2024/04/16 02:02:14;;;;;;;0.52;0.10;;;;;;;4.39;100.00;99697.16;6696140;21;20006;-72
2024/04/16 02:05:02;;;;;;;0.32;0.10;;;;;;;4.26;100.00;99698.69;6708798;21;19987;-73
2024/04/16 02:07:53;;;;;;;0.90;0.13;;;;;;;4.11;100.00;99698.50;6708700;21;20003;-72
2024/04/16 02:10:50;;;;;;;0.55;0.30;;;;;;;3.99;100.00;99700.75;6707874;21;20003;-71
2024/04/16 02:13:40;;;;;;;6.82;0.70;;;;;;;3.95;100.00;99694.09;6704025;21;20006;-71
2024/04/16 02:16:30;;;;;;;0.15;0.05;;;;;;;3.83;100.00;99683.38;6684316;21;20030;-74
2024/04/16 02:19:20;;;;;;;0.95;0.20;;;;;;;3.87;100.00;99672.78;6677712;21;20023;-74
2024/04/16 02:22:09;;;;;;;1.38;0.17;;;;;;;3.86;100.00;99682.31;6679130;21;20083;-74
2024/04/16 02:25:00;;;;;;;1.23;0.20;;;;;;;3.86;100.00;99674.06;6678437;21;20006;-75
2024/04/16 02:27:48;;;;;;;2.00;0.28;;;;;;;3.95;100.00;99655.69;6673989;21;20029;-74
2024/04/16 02:30:38;;;;;;;0.00;0.00;;;;;;;3.95;100.00;99656.41;6681772;21;20651;-75
2024/04/16 02:33:28;;;;;;;0.60;0.10;;;;;;;3.86;100.00;99643.16;6714329;21;20029;-75
2024/04/16 02:36:18;;;;;;;1.48;0.47;;;;;;;3.86;100.00;99648.66;6679609;21;20742;-76
2024/04/16 02:39:06;;;;;;;;;;;;;;;3.84;100.00;99659.41;6684570;21;20031;-75
2024/04/16 02:41:57;;;;;;;1.48;0.30;;;;;;;3.88;100.00;99668.81;6678944;21;19920;-75
2024/04/16 02:44:44;;;;;;;1.02;0.22;;;;;;;3.92;100.00;99660.22;6676991;21;20006;-75
2024/04/16 02:47:35;;;;;;;3.30;0.28;;;;;;;3.88;100.00;99663.31;6681523;21;20005;-75
2024/04/16 02:50:28;;;;;;;0.10;0.00;;;;;;;3.81;100.00;99655.72;6682744;21;20039;-75
2024/04/16 02:53:22;;;;;;;0.38;0.00;;;;;;;3.77;100.00;99641.56;6679018;21;20541;-75
2024/04/16 02:56:10;;;;;;;2.65;0.20;;;;;;;3.77;100.00;99638.84;6681975;21;19995;-75
2024/04/16 02:59:00;;;;;;;0.80;0.20;;;;;;;3.78;100.00;99629.31;6677185;21;20076;-75
2024/04/16 03:01:47;;;;;;;3.53;0.38;;;;;;;3.71;100.00;99635.47;6682268;21;20014;-75
2024/04/16 03:04:39;;;;;;;0.30;0.00;;;;;;;3.66;100.00;99637.06;6677640;21;20613;-75
2024/04/16 03:07:29;;;;;;;0.65;0.00;;;;;;;3.63;100.00;99637.38;6679942;21;19998;-75
2024/04/16 03:10:19;;;;;;;1.92;0.55;;;;;;;3.64;100.00;99634.13;6682361;21;19999;-76
2024/04/16 03:13:06;;;;;;;2.83;0.55;;;;;;;3.63;100.00;99638.09;6681169;21;19999;-76
2024/04/16 03:15:57;;;;;;;0.10;0.00;;;;;;;3.49;100.00;99644.16;6675978;21;20014;-75
2024/04/16 03:18:47;;;;;;;0.20;0.13;;;;;;;3.39;100.00;99636.38;6677106;21;20077;-76
2024/04/16 03:21:38;;;;;;;6.82;0.30;;;;;;;3.30;100.00;99633.31;6681634;21;20645;-75
2024/04/16 03:24:28;;;;;;;0.05;0.00;;;;;;;3.15;100.00;99639.31;6679630;21;19995;-75
2024/04/16 03:27:18;;;;;;;0.40;0.10;;;;;;;3.07;100.00;99650.19;6678322;21;20493;-75
2024/04/16 03:30:06;;;;;;;0.00;0.00;;;;;;;3.08;100.00;99650.91;6681785;21;20061;-75
2024/04/16 03:32:56;;;;;;;1.43;0.10;;;;;;;3.09;100.00;99650.41;6676938;21;19999;-75
2024/04/16 03:35:52;;;;;;;0.28;0.13;;;;;;;3.16;100.00;99652.50;6680576;21;20003;-75
2024/04/16 03:38:41;;;;;;;0.30;0.20;;;;;;;3.23;100.00;99646.38;6681293;21;20548;-73
2024/04/16 03:41:34;;;;;;;0.00;0.00;;;;;;;3.12;100.00;99641.13;6678613;21;20029;-73
2024/04/16 03:44:24;;;;;;;0.13;0.10;;;;;;;3.04;100.00;99650.47;6678975;21;20031;-73
2024/04/16 03:47:12;;;;;;;0.20;0.10;;;;;;;3.09;100.00;99635.94;6678576;21;20034;-74
2024/04/16 03:50:02;;;;;;;0.20;0.00;;;;;;;3.07;100.00;99636.47;6677541;21;20018;-73
2024/04/16 03:52:49;;;;;;;0.88;0.10;;;;;;;3.15;100.00;99639.31;6678265;21;19999;-73
2024/04/16 03:55:39;;;;;;;0.77;0.10;;;;;;;3.15;100.00;99626.34;6678053;21;19995;-74
2024/04/16 03:58:31;;;;;;;0.80;0.20;;;;;;;3.12;100.00;99630.16;6677905;21;20010;-73
2024/04/16 04:01:22;;;;;;;0.32;0.10;;;;;;;3.11;100.00;99636.88;6680020;21;20003;-73
2024/04/16 04:04:12;;;;;;;0.90;0.10;;;;;;;2.93;100.00;99630.25;6689264;21;19995;-74
2024/04/16 04:06:59;;;;;;;1.58;0.40;;;;;;;3.03;100.00;99632.56;6700012;21;20010;-72
2024/04/16 04:09:50;;;;;;;1.65;0.20;;;;;;;2.94;100.00;99637.22;6687065;21;20003;-73
2024/04/16 04:12:40;;;;;;;0.90;0.10;;;;;;;2.99;100.00;99639.13;6677584;21;20443;-73
2024/04/16 04:15:30;;;;;;;3.63;0.30;;;;;;;2.95;100.00;99638.69;6678899;21;20080;-73
2024/04/16 04:18:20;;;;;;;5.68;0.50;;;;;;;3.02;100.00;99659.25;6674555;21;20688;-73
2024/04/16 04:21:10;;;;;;;2.75;0.20;;;;;;;3.05;100.00;99649.97;6684386;21;20505;-73
2024/04/16 04:24:00;;;;;;;0.57;0.25;;;;;;;3.26;100.00;99650.06;6714653;21;20002;-74
2024/04/16 04:26:55;;;;;;;3.80;0.20;;;;;;;3.37;100.00;99643.66;6679551;21;20006;-73
2024/04/16 04:29:46;;;;;;;0.30;0.20;;;;;;;3.45;100.00;99652.72;6677919;21;20009;-73
2024/04/16 04:32:39;;;;;;;3.13;1.55;;;;;;;3.52;100.00;99663.03;6682306;21;20358;-73
2024/04/16 04:35:26;;;;;;;3.80;0.73;;;;;;;3.58;100.00;99658.16;6680158;21;20681;-74
2024/04/16 04:38:17;;;;;;;1.70;1.15;;;;;;;3.53;100.00;99648.03;6677854;21;20009;-73
2024/04/16 04:41:05;;;;;;;6.80;1.23;;;;;;;3.46;100.00;99651.44;6678340;21;20013;-73
2024/04/16 04:43:55;;;;;;;0.75;0.30;;;;;;;3.43;100.00;99650.47;6675940;21;20564;-73
2024/04/16 04:46:43;;;;;;;1.40;0.63;;;;;;;3.38;100.00;99640.34;6674787;21;20010;-74
2024/04/16 04:49:36;;;;;;;0.77;0.32;;;;;;;3.39;100.00;99641.84;6680455;21;20010;-73
2024/04/16 04:52:24;;;;;;;2.42;0.50;;;;;;;3.46;100.00;99637.72;6680795;21;20014;-74
2024/04/16 04:55:14;;;;;;;1.85;0.32;;;;;;;3.50;100.00;99638.16;6679775;21;20685;-73
2024/04/16 04:58:01;;;;;;;0.73;0.28;;;;;;;3.52;100.00;99640.38;6676995;21;20001;-76
2024/04/16 05:00:51;;;;;;;2.78;0.77;;;;;;;3.62;100.00;99644.88;6712330;21;20479;-77
2024/04/16 05:03:39;;;;;;;4.53;0.90;;;;;;;3.66;100.00;99641.81;6672913;21;20003;-76
2024/04/16 05:06:33;;;;;;;1.50;0.85;;;;;;;3.76;100.00;99648.34;6677866;21;20013;-77
2024/04/16 05:09:23;;;;;;;2.03;0.82;;;;;;;3.81;100.00;99658.47;6679610;21;20007;-77
2024/04/16 05:12:11;;;;;;;2.35;0.85;;;;;;;4.00;100.00;99649.34;6677111;21;20009;-76
2024/04/16 05:15:05;;;;;;;1.38;0.60;;;;;;;4.22;100.00;99656.34;6675189;21;20011;-75
2024/04/16 05:17:55;;;;;;;2.28;1.10;;;;;;;4.39;100.00;99648.44;6676096;21;20029;-77
2024/04/16 05:20:47;;;;;;;3.15;1.00;;;;;;;4.44;100.00;99652.34;6694081;21;20064;-77
2024/04/16 05:23:39;;;;;;;2.28;0.60;;;;;;;4.50;100.00;99655.66;6736732;21;20019;-78
2024/04/16 05:26:27;;;;;;;2.20;0.85;;;;;;;4.53;100.00;99654.63;6640476;21;19996;-78
2024/04/16 05:29:17;;;;;;;10.80;1.23;;;;;;;4.62;100.00;99651.38;6676907;21;20023;-78
2024/04/16 05:32:04;;;;;;;;;;;;;;;4.65;100.00;99647.59;6681352;21;19999;-78
2024/04/16 05:34:54;;;;;;;3.95;1.10;;;;;;;4.71;100.00;99650.91;6679701;21;19986;-78
2024/04/16 05:37:45;;;;;;;4.85;1.08;;;;;;;4.80;100.00;99640.72;6677409;21;20031;-77
2024/04/16 05:40:35;;;;;;;3.35;0.95;;;;;;;4.82;100.00;99640.91;6674929;21;20079;-78
2024/04/16 05:43:25;;;;;;;2.75;1.05;;;;;;;4.87;100.00;99635.28;6676713;21;20018;-77
2024/04/16 05:46:17;;;;;;;6.38;0.80;;;;;;;5.00;100.00;99612.47;6712996;21;20007;-78
2024/04/16 05:49:07;;;;;;;3.30;0.90;;;;;;;5.14;100.00;99635.06;6676132;21;19998;-78
2024/04/16 05:51:57;;;;;;;4.13;1.30;;;;;;;5.26;100.00;99646.53;6680361;21;20334;-78
2024/04/16 05:54:49;;;;;;;2.63;1.27;;;;;;;5.46;100.00;99648.47;6684933;21;20007;-78
2024/04/16 05:57:40;;;;;;;5.80;1.38;;;;;;;5.48;100.00;99651.41;6678473;21;20006;-77
2024/04/16 06:00:30;;;;;;;2.05;1.02;;;;;;;5.50;100.00;99654.34;6678378;21;20015;-78
2024/04/16 06:03:20;;;;;;;3.17;0.77;;;;;;;5.52;100.00;99654.56;6683206;21;20010;-77
2024/04/16 06:50:10;;;;;;;3.10;0.50;;;;;;;6.09;100.00;99617.16;6132475;22;20037;-76
2024/04/16 06:53:39;;;;;;;2.75;0.47;;;;;;;6.29;100.00;99619.03;6270517;22;20004;-76
2024/04/16 06:56:28;;;;;;;5.38;0.77;;;;;;;6.41;100.00;99605.63;6312643;22;20045;-76
2024/04/16 06:59:17;;;;;;;10.63;0.70;;;;;;;6.30;100.00;99594.94;6319459;22;20466;-77
2024/04/16 07:02:08;;;;;;;1.42;0.38;;;;;;;6.33;100.00;99588.34;6328009;22;19999;-77
2024/04/16 07:04:56;;;;;;;2.22;0.75;;;;;;;6.46;100.00;99583.38;6360613;22;20015;-76
2024/04/16 07:07:47;;;;;;;2.25;0.43;;;;;;;6.39;100.00;99584.13;6336744;22;20690;-77
2024/04/16 07:10:40;;;;;;;3.00;0.50;;;;;;;6.38;100.00;99593.69;6422910;22;20498;-76
2024/04/16 07:13:29;;;;;;;6.07;0.40;;;;;;;6.53;100.00;99597.72;6604773;21;20014;-76
2024/04/16 07:16:20;;;;;;;2.30;0.57;;;;;;;6.62;100.00;99586.88;6627696;21;20383;-81
2024/04/16 07:19:07;;;;;;;6.55;0.57;;;;;;;6.66;100.00;99589.25;6622187;21;20000;-77
2024/04/16 07:21:58;;;;;;;7.30;0.80;;;;;;;6.65;100.00;99598.81;6629967;21;20003;-77
2024/04/16 07:24:46;;;;;;;1.42;0.40;;;;;;;6.99;100.00;99589.41;6623170;21;20010;-76
2024/04/16 07:27:38;;;;;;;5.30;0.80;;;;;;;6.94;100.00;99590.31;6662697;21;20586;-77
2024/04/16 07:30:26;;;;;;;3.25;0.65;;;;;;;6.77;100.00;99577.84;6627613;21;20028;-77
2024/04/16 07:33:35;;;;;;;0.60;0.50;;;;;;;7.14;100.00;99581.06;6628176;21;20014;-78
2024/04/16 07:36:23;;;;;;;1.88;0.32;;;;;;;7.23;100.00;99585.28;6626492;21;20374;-77
2024/04/16 07:39:14;;;;;;;2.90;0.95;;;;;;;7.20;100.00;99556.78;6627025;21;20010;-77
2024/04/16 07:42:01;;;;;;;2.78;0.60;;;;;;;7.42;100.00;99563.53;6628412;21;20012;-77
2024/04/16 07:45:05;;;;;;;1.30;0.50;;;;;;;7.54;100.00;99564.56;6625556;21;19995;-77
2024/04/16 07:52:53;;;;;;;3.25;0.68;;;;;;;7.54;100.00;99561.06;6487348;21;20443;-77
2024/04/16 07:55:46;;;;;;;0.82;0.20;;;;;;;7.52;100.00;99561.63;6621088;21;20568;-77
2024/04/16 08:07:45;;;;;;;12.70;0.60;;;;;;;7.74;100.00;99551.75;6523575;21;20850;-77
2024/04/16 08:16:42;;;;;;;2.20;0.43;;;;;;;8.06;100.00;99555.81;6606058;21;20089;-78
2024/04/16 08:21:18;;;;;;;0.20;0.13;;;;;;;8.00;100.00;99549.03;6509961;21;19992;-77
2024/04/16 08:50:04;;;;;;;0.80;0.20;;;;;;;7.79;100.00;99535.50;6158273;22;20323;-76
2024/04/16 08:52:55;;;;;;;0.45;0.17;;;;;;;7.64;100.00;99542.63;6269768;22;20004;-76
2024/04/16 08:58:56;;;;;;;0.95;0.45;;;;;;;7.75;100.00;99520.06;6695325;21;20043;-78
2024/04/16 09:02:30;;;;;;;0.77;0.17;;;;;;;7.70;100.00;99525.81;6677564;21;20006;-78
2024/04/16 09:05:20;;;;;;;0.68;0.20;;;;;;;7.57;100.00;99526.81;6677278;21;20522;-79
2024/04/16 09:08:19;;;;;;;0.05;0.00;;;;;;;7.51;100.00;99531.81;6678081;21;19999;-79
2024/04/16 09:11:12;;;;;;;0.38;0.00;;;;;;;7.40;100.00;99530.22;6680115;21;20034;-78
2024/04/16 09:14:03;;;;;;;0.60;0.45;;;;;;;7.43;100.00;99522.84;6680879;21;20002;-78
2024/04/16 09:16:50;;;;;;;1.63;0.22;;;;;;;7.33;100.00;99519.94;6674165;21;19999;-78
2024/04/16 09:19:41;;;;;;;0.38;0.10;;;;;;;7.19;100.00;99527.00;6679800;21;20039;-76
2024/04/16 09:22:35;;;;;;;0.63;0.10;;;;;;;7.23;100.00;99544.63;6712302;21;20069;-77
2024/04/16 09:25:24;;;;;;;1.83;0.17;;;;;;;7.04;100.00;99539.53;6677254;21;20441;-77
2024/04/16 09:28:17;;;;;;;0.10;0.03;;;;;;;6.77;100.00;99525.44;6677192;21;20003;-77
2024/04/16 09:31:06;;;;;;;0.22;0.10;;;;;;;6.75;100.00;99524.53;6677014;21;20089;-78
2024/04/16 09:34:06;;;;;;;0.55;0.10;;;;;;;6.64;100.00;99531.19;6678218;21;20009;-77
2024/04/16 09:36:53;;;;;;;;;;;;;;;6.56;100.00;99531.19;6673420;21;19999;-78
2024/04/16 09:39:50;;;;;;;0.82;0.20;;;;;;;6.56;100.00;99513.94;6677519;21;19928;-78
2024/04/16 09:42:40;;;;;;;4.30;0.57;;;;;;;6.63;100.00;99504.91;6676918;21;19999;-77
2024/04/16 09:45:34;;;;;;;0.45;0.20;;;;;;;6.66;100.00;99501.78;6677195;21;20009;-77
2024/04/16 09:48:28;;;;;;;1.33;0.50;;;;;;;6.69;100.00;99497.19;6713594;21;20049;-78
2024/04/16 16:55:15;;;;;;;0.20;0.08;;;;;;;8.57;100.00;99488.13;6149470;23;20202;-78
2024/04/16 16:58:04;;;;;;;0.28;0.00;;;;;;;8.31;100.00;99508.81;6139252;23;20006;-77
2024/04/16 17:00:54;;;;;;;1.55;0.10;;;;;;;7.97;100.00;99499.13;6138129;23;20013;-77
2024/04/16 17:03:44;;;;;;;0.85;0.40;;;;;;;7.72;100.00;99506.66;6172942;23;20002;-78
2024/04/16 17:06:37;;;;;;;0.00;0.00;;;;;;;7.70;100.00;99518.28;6139392;23;20006;-78
2024/04/16 17:09:28;;;;;;;0.28;0.00;;;;;;;7.56;100.00;99511.53;6222083;22;20018;-77
2024/04/16 17:12:18;;;;;;;0.98;0.30;;;;;;;7.44;100.00;99510.50;6417746;22;20391;-77
2024/04/16 17:15:08;;;;;;;;;;;;;;;7.44;100.00;99502.22;6503007;21;20603;-78
2024/04/16 17:17:56;;;;;;;1.27;0.25;;;;;;;7.30;100.00;99502.47;6553554;21;19939;-77
2024/04/16 17:20:46;;;;;;;0.20;0.10;;;;;;;7.24;100.00;99501.94;6677356;21;20010;-76
2024/04/16 17:23:37;;;;;;;0.30;0.10;;;;;;;7.26;100.00;99499.34;6678568;21;20719;-76
2024/04/16 17:26:27;;;;;;;0.40;0.20;;;;;;;7.25;100.00;99503.44;6678093;21;19999;-76
2024/04/16 17:29:17;;;;;;;0.20;0.10;;;;;;;7.35;100.00;99513.88;6677384;21;20448;-76
2024/04/16 17:32:05;;;;;;;0.20;0.10;;;;;;;7.40;100.00;99510.16;6677060;21;20036;-76
2024/04/16 17:34:57;;;;;;;1.02;0.15;;;;;;;7.36;100.00;99512.56;6680683;21;19999;-76
2024/04/16 17:37:44;;;;;;;0.28;0.13;;;;;;;7.37;100.00;99514.78;6679656;21;20064;-77
2024/04/16 17:40:37;;;;;;;0.40;0.20;;;;;;;7.35;100.00;99517.38;6678776;21;19998;-78
2024/04/16 17:43:25;;;;;;;0.40;0.25;;;;;;;7.38;100.00;99515.50;6677779;21;20009;-77
2024/04/16 17:46:15;;;;;;;0.32;0.20;;;;;;;7.41;100.00;99515.13;6672941;21;20003;-78
2024/04/16 17:49:03;;;;;;;0.47;0.10;;;;;;;7.37;100.00;99516.78;6644682;21;20102;-78
2024/04/16 17:51:54;;;;;;;0.90;0.30;;;;;;;7.37;100.00;99522.31;6679537;21;20621;-79
2024/04/16 17:54:44;;;;;;;1.27;0.30;;;;;;;7.33;100.00;99526.19;6676880;21;20045;-77
2024/04/16 18:10:59;;;;;;;0.32;0.20;;;;;;;7.37;100.00;99541.63;6354561;22;20004;-79
2024/04/16 18:13:50;;;;;;;1.58;0.40;;;;;;;7.36;100.00;99548.44;6480955;22;20009;-79
2024/04/16 18:16:38;;;;;;;0.68;0.20;;;;;;;7.32;100.00;99548.84;6511954;21;20065;-79
2024/04/16 18:19:33;;;;;;;1.13;0.20;;;;;;;7.36;100.00;99554.69;6531330;21;20005;-77
2024/04/16 18:22:21;;;;;;;0.20;0.20;;;;;;;7.39;100.00;99553.56;6543685;21;20040;-79
2024/04/16 18:25:13;;;;;;;0.68;0.35;;;;;;;7.41;100.00;99561.31;6521385;21;20046;-80
2024/04/16 18:28:03;;;;;;;0.65;0.32;;;;;;;7.38;100.00;99562.44;6482359;22;20001;-80
2024/04/16 18:30:54;;;;;;;2.05;0.65;;;;;;;7.37;100.00;99569.22;6519995;22;20087;-78
2024/04/16 18:33:42;;;;;;;1.83;0.57;;;;;;;7.41;100.00;99575.09;6516950;21;19997;-78
2024/04/16 18:36:35;;;;;;;1.98;1.08;;;;;;;7.43;100.00;99580.81;6481189;22;20476;-79
2024/04/16 18:39:22;;;;;;;3.67;1.00;;;;;;;7.43;100.00;99583.56;6516835;21;20013;-79
2024/04/16 18:42:16;;;;;;;1.05;0.45;;;;;;;7.43;100.00;99586.31;6619073;21;20011;-78
2024/04/16 18:45:06;;;;;;;1.63;0.80;;;;;;;7.47;100.00;99594.97;6624009;21;20029;-78
2024/04/16 18:47:55;;;;;;;2.17;0.70;;;;;;;7.47;100.00;99594.97;6624871;21;20000;-79
2024/04/16 18:50:47;;;;;;;3.30;1.10;;;;;;;7.47;100.00;99594.97;6624075;21;19996;-79
2024/04/16 18:53:40;;;;;;;1.00;0.50;;;;;;;7.44;100.00;99596.06;6624727;21;20432;-77
2024/04/16 18:56:30;;;;;;;1.13;0.50;;;;;;;7.43;100.00;99600.13;6624877;21;20004;-79
2024/04/16 18:59:22;;;;;;;1.35;0.70;;;;;;;7.48;100.00;99599.91;6636193;21;20000;-78
2024/04/16 19:02:10;;;;;;;1.77;0.65;;;;;;;7.48;100.00;99596.44;6640054;21;19999;-78
2024/04/16 19:05:00;;;;;;;0.75;0.40;;;;;;;7.47;100.00;99608.78;6636073;21;20015;-78
2024/04/16 19:07:47;;;;;;;2.90;0.90;;;;;;;7.48;100.00;99607.47;6623751;21;20069;-77
2024/04/16 19:10:41;;;;;;;0.75;0.40;;;;;;;7.52;100.00;99614.06;6622059;21;20020;-76
2024/04/16 19:13:29;;;;;;;0.95;0.40;;;;;;;7.52;100.00;99618.88;6621847;21;20123;-77
2024/04/16 19:16:19;;;;;;;1.13;0.47;;;;;;;7.54;100.00;99616.25;6626854;21;20436;-77
2024/04/16 19:19:07;;;;;;;0.65;0.32;;;;;;;7.56;100.00;99624.00;6624321;21;20000;-77
2024/04/16 19:21:58;;;;;;;2.95;0.73;;;;;;;7.56;100.00;99619.22;6627874;21;19999;-77
2024/04/16 19:24:47;;;;;;;1.02;0.50;;;;;;;7.56;100.00;99621.25;6627843;21;20015;-77
2024/04/16 19:27:45;;;;;;;1.83;0.60;;;;;;;7.54;100.00;99628.06;6627518;21;20460;-77
2024/04/16 19:30:35;;;;;;;0.90;0.40;;;;;;;7.55;100.00;99628.78;6625513;21;20014;-77
2024/04/16 19:33:27;;;;;;;2.53;0.70;;;;;;;7.58;100.00;99627.66;6625148;21;20023;-75
2024/04/16 19:36:14;;;;;;;3.50;1.05;;;;;;;7.54;100.00;99633.59;6625949;21;20361;-76
2024/04/16 19:39:05;;;;;;;2.70;1.13;;;;;;;7.59;100.00;99637.44;6628335;21;20004;-76
2024/04/16 19:41:53;;;;;;;1.77;1.05;;;;;;;7.60;100.00;99643.69;6622437;21;20000;-76
2024/04/16 19:44:47;;;;;;;2.00;1.10;;;;;;;7.62;100.00;99644.59;6627533;21;19991;-75
2024/04/16 19:47:34;;;;;;;2.58;1.23;;;;;;;7.62;100.00;99649.38;6661262;21;20015;-76
2024/04/16 19:50:25;;;;;;;1.30;0.80;;;;;;;7.61;100.00;99648.63;6640240;21;20004;-76
2024/04/16 19:53:14;;;;;;;1.52;0.80;;;;;;;7.60;100.00;99641.66;6645161;21;20000;-76
2024/04/16 19:56:04;;;;;;;2.45;0.95;;;;;;;7.60;100.00;99640.94;6623133;21;20073;-77
2024/04/16 19:58:54;;;;;;;1.67;0.60;;;;;;;7.59;100.00;99642.97;6662414;21;19999;-77
2024/04/16 20:01:47;;;;;;;3.40;1.00;;;;;;;7.56;100.00;99641.28;6621164;21;20011;-77
2024/04/16 20:04:35;;;;;;;1.70;0.80;;;;;;;7.52;100.00;99641.69;6625549;21;20404;-76
2024/04/16 20:07:26;;;;;;;3.95;0.70;;;;;;;7.53;100.00;99648.66;6623943;21;19999;-76
2024/04/16 20:10:14;;;;;;;0.70;0.40;;;;;;;7.56;100.00;99640.56;6625509;21;20000;-76
2024/04/16 20:13:04;;;;;;;0.50;0.25;;;;;;;7.58;100.00;99646.25;6621462;21;20645;-77
2024/04/16 20:15:53;;;;;;;0.70;0.38;;;;;;;7.59;100.00;99647.72;6622987;21;20063;-76
2024/04/16 20:18:46;;;;;;;1.33;0.70;;;;;;;7.69;100.00;99651.38;6622113;21;20014;-76
2024/04/16 20:21:35;;;;;;;1.00;0.50;;;;;;;7.64;100.00;99650.31;6657201;21;20349;-76
2024/04/16 20:24:26;;;;;;;2.13;1.10;;;;;;;7.62;100.00;99649.38;6622121;21;20015;-75
2024/04/16 20:27:14;;;;;;;0.95;0.40;;;;;;;7.60;100.00;99649.94;6621211;21;20003;-76
2024/04/16 20:30:05;;;;;;;1.10;0.60;;;;;;;7.59;100.00;99648.47;6621644;21;20012;-76
2024/04/16 20:32:53;;;;;;;1.70;0.57;;;;;;;7.61;100.00;99653.44;6621485;21;20281;-76
2024/04/16 20:35:47;;;;;;;2.08;0.88;;;;;;;7.62;100.00;99655.63;6620882;21;20018;-76
2024/04/16 20:38:34;;;;;;;4.03;1.77;;;;;;;7.63;100.00;99657.09;6621314;21;20014;-75
2024/04/16 20:41:25;;;;;;;2.90;1.10;;;;;;;7.59;100.00;99645.72;6619922;21;20010;-76
2024/04/16 20:44:12;;;;;;;3.53;1.85;;;;;;;7.57;100.00;99653.81;6621960;21;20007;-76
2024/04/16 20:47:02;;;;;;;3.13;1.55;;;;;;;7.56;100.00;99652.34;6619884;21;20692;-76
2024/04/16 20:49:52;;;;;;;1.55;0.73;;;;;;;7.53;100.00;99656.22;6622274;21;20011;-76
2024/04/16 20:52:47;;;;;;;1.48;0.70;;;;;;;7.52;100.00;99657.53;6625409;21;20008;-75
2024/04/16 20:55:35;;;;;;;2.40;1.00;;;;;;;7.54;100.00;99663.19;6624577;21;19999;-77
2024/04/16 20:58:25;;;;;;;2.17;0.60;;;;;;;7.56;100.00;99663.38;6620891;21;19999;-77
2024/04/16 21:01:14;;;;;;;2.83;0.93;;;;;;;7.52;100.00;99661.00;6623753;21;20455;-76
2024/04/16 21:04:04;;;;;;;1.50;0.70;;;;;;;7.51;100.00;99667.81;6625458;21;20011;-76
2024/04/16 21:06:51;;;;;;;2.95;1.42;;;;;;;7.52;100.00;99665.81;6621377;21;19996;-76
2024/04/16 21:09:45;;;;;;;3.33;0.98;;;;;;;7.51;100.00;99667.06;6582638;21;19999;-76
2024/04/16 21:12:33;;;;;;;1.48;0.70;;;;;;;7.49;100.00;99667.66;6624336;21;20000;-77
2024/04/16 21:15:23;;;;;;;1.73;0.80;;;;;;;7.51;100.00;99667.06;6621750;21;20073;-77
2024/04/16 21:18:10;;;;;;;1.02;0.50;;;;;;;7.50;100.00;99668.38;6626267;21;19999;-77
2024/04/16 21:21:02;;;;;;;2.55;1.00;;;;;;;7.50;100.00;99671.13;6625473;21;20010;-77
2024/04/16 21:23:51;;;;;;;2.03;0.85;;;;;;;7.52;100.00;99676.84;6624617;21;19992;-78
2024/04/16 21:26:47;;;;;;;1.55;0.75;;;;;;;7.51;100.00;99669.84;6622293;21;19995;-75
2024/04/16 21:29:35;;;;;;;2.45;1.05;;;;;;;7.50;100.00;99674.63;6620328;21;20073;-76
2024/04/16 21:32:25;;;;;;;5.32;0.85;;;;;;;7.50;100.00;99682.19;6624908;21;20071;-76
2024/04/16 21:35:15;;;;;;;2.45;0.93;;;;;;;7.50;100.00;99679.41;6637997;21;20061;-74
2024/04/16 21:38:06;;;;;;;3.70;1.15;;;;;;;7.52;100.00;99685.13;6639837;21;20014;-75
2024/04/16 21:40:59;;;;;;;3.08;1.08;;;;;;;7.52;100.00;99685.13;6624000;21;20000;-77
2024/04/16 21:43:50;;;;;;;3.83;0.70;;;;;;;7.56;100.00;99693.00;6627550;21;19999;-75
2024/04/16 21:46:40;;;;;;;2.55;1.13;;;;;;;7.57;100.00;99702.75;6655002;21;19996;-73
2024/04/16 21:49:28;;;;;;;2.85;1.27;;;;;;;7.61;100.00;99692.09;6653279;21;20024;-74
2024/04/16 21:52:18;;;;;;;2.88;1.02;;;;;;;7.59;100.00;99700.94;6654832;21;20031;-74
2024/04/16 21:55:06;;;;;;;2.60;1.17;;;;;;;7.58;100.00;99704.25;6652778;21;20026;-74
2024/04/16 21:57:57;;;;;;;2.55;1.27;;;;;;;7.56;100.00;99704.78;6653473;21;20007;-76
2024/04/16 22:00:52;;;;;;;3.92;1.23;;;;;;;7.56;100.00;99712.34;6625912;21;20011;-76
2024/04/16 22:03:39;;;;;;;2.90;1.13;;;;;;;7.57;100.00;99706.28;6623696;21;20003;-76
2024/04/16 22:06:32;;;;;;;1.58;0.90;;;;;;;7.49;100.00;99716.59;6636285;21;20003;-74
2024/04/16 22:09:20;;;;;;;2.60;1.00;;;;;;;7.43;100.00;99716.06;6646604;21;20033;-75
2024/04/16 22:12:10;;;;;;;3.05;1.10;;;;;;;7.40;100.00;99715.13;6625934;21;20000;-76
2024/04/16 22:14:57;;;;;;;2.17;0.65;;;;;;;7.36;100.00;99711.28;6624182;21;20040;-76